sensor_id;sensor_type;location;lat;lon;timestamp;P1;durP1;ratioP1;P2;durP2;ratioP2
43487;SDS011;29078;41.932;25.554;2023-02-15T00:01:11;23.33;;;17.57;;
43487;SDS011;29078;41.932;25.554;2023-02-15T00:03:36;20.83;;;16.77;;
43487;SDS011;29078;41.932;25.554;2023-02-15T00:06:03;23.70;;;17.23;;
43487;SDS011;29078;41.932;25.554;2023-02-15T00:08:29;18.83;;;15.77;;
43487;SDS011;29078;41.932;25.554;2023-02-15T00:11:12;21.93;;;16.67;;
43487;SDS011;29078;41.932;25.554;2023-02-15T00:13:39;20.73;;;15.93;;
43487;SDS011;29078;41.932;25.554;2023-02-15T00:16:09;22.37;;;16.70;;
43487;SDS011;29078;41.932;25.554;2023-02-15T00:18:36;22.60;;;17.57;;
43487;SDS011;29078;41.932;25.554;2023-02-15T00:21:03;21.90;;;17.50;;
43487;SDS011;29078;41.932;25.554;2023-02-15T00:23:33;21.20;;;17.33;;
43487;SDS011;29078;41.932;25.554;2023-02-15T00:26:06;23.00;;;18.37;;
43487;SDS011;29078;41.932;25.554;2023-02-15T00:28:33;19.80;;;17.03;;
43487;SDS011;29078;41.932;25.554;2023-02-15T00:31:05;21.27;;;16.90;;
43487;SDS011;29078;41.932;25.554;2023-02-15T00:33:37;18.13;;;14.60;;
43487;SDS011;29078;41.932;25.554;2023-02-15T00:36:04;20.37;;;16.03;;
43487;SDS011;29078;41.932;25.554;2023-02-15T00:38:31;20.57;;;16.23;;
43487;SDS011;29078;41.932;25.554;2023-02-15T00:40:57;20.03;;;15.33;;
43487;SDS011;29078;41.932;25.554;2023-02-15T00:43:24;19.90;;;16.40;;
43487;SDS011;29078;41.932;25.554;2023-02-15T00:45:51;20.73;;;16.73;;
43487;SDS011;29078;41.932;25.554;2023-02-15T00:48:17;21.13;;;17.43;;
43487;SDS011;29078;41.932;25.554;2023-02-15T00:50:48;21.70;;;17.03;;
43487;SDS011;29078;41.932;25.554;2023-02-15T00:53:14;22.70;;;18.38;;
43487;SDS011;29078;41.932;25.554;2023-02-15T00:55:40;25.20;;;18.97;;
43487;SDS011;29078;41.932;25.554;2023-02-15T00:58:06;22.30;;;17.30;;
43487;SDS011;29078;41.932;25.554;2023-02-15T01:00:33;24.00;;;18.40;;
43487;SDS011;29078;41.932;25.554;2023-02-15T01:02:58;20.40;;;16.67;;
43487;SDS011;29078;41.932;25.554;2023-02-15T01:05:24;24.70;;;17.93;;
43487;SDS011;29078;41.932;25.554;2023-02-15T01:07:49;24.50;;;18.60;;
43487;SDS011;29078;41.932;25.554;2023-02-15T01:10:14;29.13;;;20.13;;
43487;SDS011;29078;41.932;25.554;2023-02-15T01:12:40;24.60;;;18.70;;
43487;SDS011;29078;41.932;25.554;2023-02-15T01:15:06;25.07;;;18.97;;
43487;SDS011;29078;41.932;25.554;2023-02-15T01:17:32;24.63;;;19.37;;
43487;SDS011;29078;41.932;25.554;2023-02-15T01:19:57;24.03;;;18.97;;
43487;SDS011;29078;41.932;25.554;2023-02-15T01:22:24;25.57;;;18.80;;
43487;SDS011;29078;41.932;25.554;2023-02-15T01:24:49;28.30;;;22.00;;
43487;SDS011;29078;41.932;25.554;2023-02-15T01:27:15;26.93;;;21.77;;
43487;SDS011;29078;41.932;25.554;2023-02-15T01:29:40;29.37;;;21.67;;
43487;SDS011;29078;41.932;25.554;2023-02-15T01:32:06;30.10;;;23.37;;
43487;SDS011;29078;41.932;25.554;2023-02-15T01:34:31;26.33;;;20.43;;
43487;SDS011;29078;41.932;25.554;2023-02-15T01:36:57;29.77;;;21.60;;
43487;SDS011;29078;41.932;25.554;2023-02-15T01:39:22;30.03;;;22.20;;
43487;SDS011;29078;41.932;25.554;2023-02-15T01:41:47;28.37;;;21.73;;
43487;SDS011;29078;41.932;25.554;2023-02-15T01:47:21;26.73;;;21.43;;
43487;SDS011;29078;41.932;25.554;2023-02-15T01:50:19;27.73;;;20.88;;
43487;SDS011;29078;41.932;25.554;2023-02-15T01:52:49;28.67;;;20.17;;
43487;SDS011;29078;41.932;25.554;2023-02-15T01:55:30;24.70;;;19.33;;
43487;SDS011;29078;41.932;25.554;2023-02-15T01:58:01;26.90;;;20.63;;
43487;SDS011;29078;41.932;25.554;2023-02-15T02:00:27;28.47;;;21.77;;
43487;SDS011;29078;41.932;25.554;2023-02-15T02:02:53;26.23;;;19.67;;
43487;SDS011;29078;41.932;25.554;2023-02-15T02:05:22;25.17;;;18.57;;
43487;SDS011;29078;41.932;25.554;2023-02-15T02:07:47;20.53;;;16.63;;
43487;SDS011;29078;41.932;25.554;2023-02-15T02:12:43;20.67;;;16.97;;
43487;SDS011;29078;41.932;25.554;2023-02-15T02:15:12;21.60;;;17.07;;
43487;SDS011;29078;41.932;25.554;2023-02-15T02:17:53;22.83;;;18.30;;
43487;SDS011;29078;41.932;25.554;2023-02-15T02:23:31;21.33;;;16.73;;
43487;SDS011;29078;41.932;25.554;2023-02-15T02:26:22;22.10;;;17.80;;
43487;SDS011;29078;41.932;25.554;2023-02-15T02:29:28;21.80;;;16.83;;
43487;SDS011;29078;41.932;25.554;2023-02-15T02:35:14;23.90;;;18.55;;
43487;SDS011;29078;41.932;25.554;2023-02-15T02:37:48;23.70;;;18.20;;
43487;SDS011;29078;41.932;25.554;2023-02-15T02:40:30;23.47;;;18.50;;
43487;SDS011;29078;41.932;25.554;2023-02-15T02:46:31;23.40;;;19.00;;
43487;SDS011;29078;41.932;25.554;2023-02-15T02:49:01;25.73;;;19.97;;
43487;SDS011;29078;41.932;25.554;2023-02-15T02:51:27;27.13;;;21.37;;
43487;SDS011;29078;41.932;25.554;2023-02-15T02:53:56;27.27;;;21.80;;
43487;SDS011;29078;41.932;25.554;2023-02-15T02:59:01;28.83;;;21.13;;
43487;SDS011;29078;41.932;25.554;2023-02-15T03:01:38;25.30;;;20.13;;
43487;SDS011;29078;41.932;25.554;2023-02-15T03:04:38;29.47;;;21.73;;
43487;SDS011;29078;41.932;25.554;2023-02-15T03:07:10;29.47;;;21.50;;
43487;SDS011;29078;41.932;25.554;2023-02-15T03:09:44;29.98;;;22.33;;
43487;SDS011;29078;41.932;25.554;2023-02-15T03:12:15;29.17;;;22.67;;
43487;SDS011;29078;41.932;25.554;2023-02-15T03:14:46;32.03;;;22.57;;
43487;SDS011;29078;41.932;25.554;2023-02-15T03:17:15;32.63;;;24.47;;
43487;SDS011;29078;41.932;25.554;2023-02-15T03:19:44;28.30;;;21.93;;
43487;SDS011;29078;41.932;25.554;2023-02-15T03:24:56;34.10;;;24.57;;
43487;SDS011;29078;41.932;25.554;2023-02-15T03:27:27;32.73;;;24.97;;
43487;SDS011;29078;41.932;25.554;2023-02-15T03:29:58;26.80;;;20.48;;
43487;SDS011;29078;41.932;25.554;2023-02-15T03:32:24;30.47;;;21.97;;
43487;SDS011;29078;41.932;25.554;2023-02-15T03:34:53;32.10;;;23.40;;
43487;SDS011;29078;41.932;25.554;2023-02-15T03:37:23;29.90;;;21.60;;
43487;SDS011;29078;41.932;25.554;2023-02-15T03:39:56;30.00;;;22.43;;
43487;SDS011;29078;41.932;25.554;2023-02-15T03:42:46;29.70;;;21.40;;
43487;SDS011;29078;41.932;25.554;2023-02-15T03:45:21;27.97;;;21.40;;
43487;SDS011;29078;41.932;25.554;2023-02-15T03:47:51;29.57;;;21.57;;
43487;SDS011;29078;41.932;25.554;2023-02-15T03:50:19;28.30;;;22.03;;
43487;SDS011;29078;41.932;25.554;2023-02-15T03:53:07;31.13;;;23.70;;
43487;SDS011;29078;41.932;25.554;2023-02-15T03:55:36;28.67;;;21.67;;
43487;SDS011;29078;41.932;25.554;2023-02-15T03:58:02;43.33;;;28.53;;
43487;SDS011;29078;41.932;25.554;2023-02-15T04:00:53;38.07;;;27.17;;
43487;SDS011;29078;41.932;25.554;2023-02-15T04:04:05;32.17;;;23.70;;
43487;SDS011;29078;41.932;25.554;2023-02-15T04:06:36;33.10;;;24.70;;
43487;SDS011;29078;41.932;25.554;2023-02-15T04:09:02;33.70;;;25.03;;
43487;SDS011;29078;41.932;25.554;2023-02-15T04:11:46;28.83;;;22.77;;
43487;SDS011;29078;41.932;25.554;2023-02-15T04:14:11;32.40;;;24.40;;
43487;SDS011;29078;41.932;25.554;2023-02-15T04:16:55;29.57;;;22.23;;
43487;SDS011;29078;41.932;25.554;2023-02-15T04:19:20;32.13;;;24.23;;
43487;SDS011;29078;41.932;25.554;2023-02-15T04:22:04;31.60;;;24.27;;
43487;SDS011;29078;41.932;25.554;2023-02-15T04:24:48;29.67;;;23.93;;
43487;SDS011;29078;41.932;25.554;2023-02-15T04:27:33;31.83;;;24.57;;
43487;SDS011;29078;41.932;25.554;2023-02-15T04:29:58;34.23;;;25.17;;
43487;SDS011;29078;41.932;25.554;2023-02-15T04:32:23;33.37;;;25.00;;
43487;SDS011;29078;41.932;25.554;2023-02-15T04:34:49;32.90;;;24.03;;
43487;SDS011;29078;41.932;25.554;2023-02-15T04:37:14;33.90;;;24.97;;
43487;SDS011;29078;41.932;25.554;2023-02-15T04:39:40;38.27;;;28.23;;
43487;SDS011;29078;41.932;25.554;2023-02-15T04:42:05;36.77;;;27.13;;
43487;SDS011;29078;41.932;25.554;2023-02-15T04:44:30;38.07;;;26.30;;
43487;SDS011;29078;41.932;25.554;2023-02-15T04:46:56;37.93;;;25.70;;
43487;SDS011;29078;41.932;25.554;2023-02-15T04:49:21;36.47;;;26.17;;
43487;SDS011;29078;41.932;25.554;2023-02-15T04:51:46;34.03;;;24.73;;
43487;SDS011;29078;41.932;25.554;2023-02-15T04:54:12;35.23;;;25.57;;
43487;SDS011;29078;41.932;25.554;2023-02-15T04:56:37;35.27;;;25.33;;
43487;SDS011;29078;41.932;25.554;2023-02-15T04:59:03;32.90;;;25.00;;
43487;SDS011;29078;41.932;25.554;2023-02-15T05:01:29;32.70;;;24.67;;
43487;SDS011;29078;41.932;25.554;2023-02-15T05:03:54;33.87;;;24.83;;
43487;SDS011;29078;41.932;25.554;2023-02-15T05:06:20;33.87;;;25.40;;
43487;SDS011;29078;41.932;25.554;2023-02-15T05:08:45;33.80;;;24.93;;
43487;SDS011;29078;41.932;25.554;2023-02-15T05:11:11;38.47;;;25.60;;
43487;SDS011;29078;41.932;25.554;2023-02-15T05:13:36;37.23;;;27.17;;
43487;SDS011;29078;41.932;25.554;2023-02-15T05:16:02;36.37;;;25.03;;
43487;SDS011;29078;41.932;25.554;2023-02-15T05:18:27;37.63;;;26.00;;
43487;SDS011;29078;41.932;25.554;2023-02-15T05:20:53;38.73;;;26.70;;
43487;SDS011;29078;41.932;25.554;2023-02-15T05:23:18;33.97;;;25.67;;
43487;SDS011;29078;41.932;25.554;2023-02-15T05:25:47;37.47;;;26.73;;
43487;SDS011;29078;41.932;25.554;2023-02-15T05:28:32;47.13;;;32.20;;
43487;SDS011;29078;41.932;25.554;2023-02-15T05:33:23;39.10;;;27.50;;
43487;SDS011;29078;41.932;25.554;2023-02-15T05:35:49;36.80;;;26.50;;
43487;SDS011;29078;41.932;25.554;2023-02-15T05:38:14;38.30;;;27.27;;
43487;SDS011;29078;41.932;25.554;2023-02-15T05:40:39;37.60;;;26.97;;
43487;SDS011;29078;41.932;25.554;2023-02-15T05:43:05;39.80;;;27.60;;
43487;SDS011;29078;41.932;25.554;2023-02-15T05:45:30;38.80;;;28.20;;
43487;SDS011;29078;41.932;25.554;2023-02-15T05:47:56;42.60;;;28.67;;
43487;SDS011;29078;41.932;25.554;2023-02-15T05:50:23;42.10;;;27.73;;
43487;SDS011;29078;41.932;25.554;2023-02-15T05:52:49;42.33;;;29.03;;
43487;SDS011;29078;41.932;25.554;2023-02-15T05:55:14;42.03;;;28.80;;
43487;SDS011;29078;41.932;25.554;2023-02-15T05:57:40;40.43;;;27.50;;
43487;SDS011;29078;41.932;25.554;2023-02-15T06:00:06;36.73;;;26.07;;
43487;SDS011;29078;41.932;25.554;2023-02-15T06:02:35;36.23;;;27.57;;
43487;SDS011;29078;41.932;25.554;2023-02-15T06:05:01;40.47;;;26.43;;
43487;SDS011;29078;41.932;25.554;2023-02-15T06:07:27;42.23;;;29.50;;
43487;SDS011;29078;41.932;25.554;2023-02-15T06:09:53;47.97;;;30.70;;
43487;SDS011;29078;41.932;25.554;2023-02-15T06:12:18;42.47;;;29.03;;
43487;SDS011;29078;41.932;25.554;2023-02-15T06:14:43;40.70;;;29.20;;
43487;SDS011;29078;41.932;25.554;2023-02-15T06:17:09;45.73;;;28.93;;
43487;SDS011;29078;41.932;25.554;2023-02-15T06:19:34;41.40;;;30.40;;
43487;SDS011;29078;41.932;25.554;2023-02-15T06:22:00;42.73;;;30.43;;
43487;SDS011;29078;41.932;25.554;2023-02-15T06:24:25;41.73;;;30.07;;
43487;SDS011;29078;41.932;25.554;2023-02-15T06:26:50;39.97;;;27.63;;
43487;SDS011;29078;41.932;25.554;2023-02-15T06:29:16;38.70;;;27.27;;
43487;SDS011;29078;41.932;25.554;2023-02-15T06:31:41;39.70;;;28.40;;
43487;SDS011;29078;41.932;25.554;2023-02-15T06:34:07;36.80;;;27.43;;
43487;SDS011;29078;41.932;25.554;2023-02-15T06:36:32;42.03;;;29.03;;
43487;SDS011;29078;41.932;25.554;2023-02-15T06:38:58;39.63;;;28.30;;
43487;SDS011;29078;41.932;25.554;2023-02-15T06:41:23;36.30;;;27.03;;
43487;SDS011;29078;41.932;25.554;2023-02-15T06:43:49;38.90;;;28.90;;
43487;SDS011;29078;41.932;25.554;2023-02-15T06:46:14;40.47;;;29.90;;
43487;SDS011;29078;41.932;25.554;2023-02-15T06:48:40;45.47;;;30.13;;
43487;SDS011;29078;41.932;25.554;2023-02-15T06:51:05;43.60;;;30.40;;
43487;SDS011;29078;41.932;25.554;2023-02-15T06:53:31;42.10;;;30.40;;
43487;SDS011;29078;41.932;25.554;2023-02-15T06:56:00;37.63;;;28.27;;
43487;SDS011;29078;41.932;25.554;2023-02-15T06:58:33;38.63;;;28.37;;
43487;SDS011;29078;41.932;25.554;2023-02-15T07:01:03;39.45;;;27.60;;
43487;SDS011;29078;41.932;25.554;2023-02-15T07:03:29;37.63;;;28.13;;
43487;SDS011;29078;41.932;25.554;2023-02-15T07:05:55;40.97;;;30.03;;
43487;SDS011;29078;41.932;25.554;2023-02-15T07:08:21;48.53;;;30.57;;
43487;SDS011;29078;41.932;25.554;2023-02-15T07:10:48;40.70;;;28.60;;
43487;SDS011;29078;41.932;25.554;2023-02-15T07:13:14;38.23;;;28.90;;
43487;SDS011;29078;41.932;25.554;2023-02-15T07:15:40;39.03;;;27.43;;
43487;SDS011;29078;41.932;25.554;2023-02-15T07:18:05;44.27;;;29.87;;
43487;SDS011;29078;41.932;25.554;2023-02-15T07:20:31;45.20;;;32.27;;
43487;SDS011;29078;41.932;25.554;2023-02-15T07:22:58;41.10;;;29.73;;
43487;SDS011;29078;41.932;25.554;2023-02-15T07:25:23;39.40;;;30.07;;
43487;SDS011;29078;41.932;25.554;2023-02-15T07:27:54;39.03;;;28.70;;
43487;SDS011;29078;41.932;25.554;2023-02-15T07:30:23;41.27;;;30.13;;
43487;SDS011;29078;41.932;25.554;2023-02-15T07:32:48;40.57;;;30.57;;
43487;SDS011;29078;41.932;25.554;2023-02-15T07:35:33;43.43;;;29.20;;
43487;SDS011;29078;41.932;25.554;2023-02-15T07:37:59;40.33;;;30.67;;
43487;SDS011;29078;41.932;25.554;2023-02-15T07:40:25;43.33;;;31.43;;
43487;SDS011;29078;41.932;25.554;2023-02-15T07:42:50;42.43;;;29.83;;
43487;SDS011;29078;41.932;25.554;2023-02-15T07:45:19;41.87;;;30.67;;
43487;SDS011;29078;41.932;25.554;2023-02-15T07:47:45;41.23;;;30.77;;
43487;SDS011;29078;41.932;25.554;2023-02-15T07:50:11;38.83;;;28.33;;
43487;SDS011;29078;41.932;25.554;2023-02-15T07:52:36;41.47;;;29.93;;
43487;SDS011;29078;41.932;25.554;2023-02-15T07:55:02;38.33;;;27.10;;
43487;SDS011;29078;41.932;25.554;2023-02-15T07:57:28;42.50;;;28.60;;
43487;SDS011;29078;41.932;25.554;2023-02-15T07:59:53;38.97;;;27.23;;
43487;SDS011;29078;41.932;25.554;2023-02-15T08:02:18;36.67;;;28.33;;
43487;SDS011;29078;41.932;25.554;2023-02-15T08:04:44;37.50;;;28.57;;
43487;SDS011;29078;41.932;25.554;2023-02-15T08:07:09;32.97;;;25.40;;
43487;SDS011;29078;41.932;25.554;2023-02-15T08:09:35;40.63;;;29.30;;
43487;SDS011;29078;41.932;25.554;2023-02-15T08:12:00;41.37;;;26.57;;
43487;SDS011;29078;41.932;25.554;2023-02-15T08:14:26;39.17;;;28.33;;
43487;SDS011;29078;41.932;25.554;2023-02-15T08:16:53;37.87;;;28.10;;
43487;SDS011;29078;41.932;25.554;2023-02-15T08:19:30;41.47;;;30.63;;
43487;SDS011;29078;41.932;25.554;2023-02-15T08:22:04;34.60;;;25.40;;
43487;SDS011;29078;41.932;25.554;2023-02-15T08:24:31;39.37;;;26.83;;
43487;SDS011;29078;41.932;25.554;2023-02-15T08:26:58;36.27;;;26.20;;
43487;SDS011;29078;41.932;25.554;2023-02-15T08:29:25;35.30;;;26.03;;
43487;SDS011;29078;41.932;25.554;2023-02-15T08:31:52;33.00;;;25.93;;
43487;SDS011;29078;41.932;25.554;2023-02-15T08:34:20;32.60;;;25.73;;
43487;SDS011;29078;41.932;25.554;2023-02-15T08:36:46;42.77;;;25.70;;
43487;SDS011;29078;41.932;25.554;2023-02-15T08:39:11;34.47;;;26.43;;
43487;SDS011;29078;41.932;25.554;2023-02-15T08:41:38;34.13;;;24.87;;
43487;SDS011;29078;41.932;25.554;2023-02-15T08:44:08;35.80;;;25.17;;
43487;SDS011;29078;41.932;25.554;2023-02-15T08:46:36;33.63;;;26.37;;
43487;SDS011;29078;41.932;25.554;2023-02-15T08:49:03;36.73;;;25.20;;
43487;SDS011;29078;41.932;25.554;2023-02-15T08:51:30;32.20;;;25.17;;
43487;SDS011;29078;41.932;25.554;2023-02-15T08:53:58;30.97;;;23.93;;
43487;SDS011;29078;41.932;25.554;2023-02-15T08:56:30;33.80;;;26.23;;
43487;SDS011;29078;41.932;25.554;2023-02-15T08:58:58;33.27;;;25.90;;
43487;SDS011;29078;41.932;25.554;2023-02-15T09:01:26;33.53;;;25.43;;
43487;SDS011;29078;41.932;25.554;2023-02-15T09:03:57;31.73;;;24.47;;
43487;SDS011;29078;41.932;25.554;2023-02-15T09:06:24;29.60;;;22.60;;
43487;SDS011;29078;41.932;25.554;2023-02-15T09:08:50;31.03;;;22.83;;
43487;SDS011;29078;41.932;25.554;2023-02-15T09:11:26;32.13;;;25.03;;
43487;SDS011;29078;41.932;25.554;2023-02-15T09:13:54;39.50;;;28.50;;
43487;SDS011;29078;41.932;25.554;2023-02-15T09:16:20;31.13;;;23.73;;
43487;SDS011;29078;41.932;25.554;2023-02-15T09:18:47;28.17;;;22.65;;
43487;SDS011;29078;41.932;25.554;2023-02-15T09:21:15;30.23;;;21.23;;
43487;SDS011;29078;41.932;25.554;2023-02-15T09:23:42;25.23;;;20.02;;
43487;SDS011;29078;41.932;25.554;2023-02-15T09:26:10;25.23;;;19.27;;
43487;SDS011;29078;41.932;25.554;2023-02-15T09:28:40;21.23;;;18.60;;
43487;SDS011;29078;41.932;25.554;2023-02-15T09:31:16;23.15;;;18.17;;
43487;SDS011;29078;41.932;25.554;2023-02-15T09:33:44;22.40;;;16.60;;
43487;SDS011;29078;41.932;25.554;2023-02-15T09:38:46;21.02;;;16.27;;
43487;SDS011;29078;41.932;25.554;2023-02-15T10:00:53;17.65;;;13.80;;
43487;SDS011;29078;41.932;25.554;2023-02-15T10:12:06;18.73;;;14.38;;
43487;SDS011;29078;41.932;25.554;2023-02-15T10:23:12;19.73;;;15.63;;
43487;SDS011;29078;41.932;25.554;2023-02-15T10:31:28;20.05;;;15.52;;
43487;SDS011;29078;41.932;25.554;2023-02-15T10:34:02;21.52;;;17.10;;
43487;SDS011;29078;41.932;25.554;2023-02-15T10:36:57;22.90;;;17.67;;
43487;SDS011;29078;41.932;25.554;2023-02-15T10:42:32;20.02;;;16.02;;
43487;SDS011;29078;41.932;25.554;2023-02-15T10:55:47;20.77;;;16.30;;
43487;SDS011;29078;41.932;25.554;2023-02-15T11:01:15;22.00;;;16.98;;
43487;SDS011;29078;41.932;25.554;2023-02-15T11:06:19;22.92;;;18.15;;
43487;SDS011;29078;41.932;25.554;2023-02-15T11:08:54;24.58;;;17.38;;
43487;SDS011;29078;41.932;25.554;2023-02-15T11:11:26;19.13;;;16.15;;
43487;SDS011;29078;41.932;25.554;2023-02-15T11:13:57;21.92;;;16.02;;
43487;SDS011;29078;41.932;25.554;2023-02-15T11:16:37;22.20;;;17.83;;
43487;SDS011;29078;41.932;25.554;2023-02-15T11:21:48;22.83;;;16.65;;
43487;SDS011;29078;41.932;25.554;2023-02-15T11:24:18;22.33;;;17.63;;
43487;SDS011;29078;41.932;25.554;2023-02-15T11:26:53;21.65;;;17.58;;
43487;SDS011;29078;41.932;25.554;2023-02-15T11:29:28;20.10;;;16.20;;
43487;SDS011;29078;41.932;25.554;2023-02-15T11:32:01;21.15;;;17.05;;
43487;SDS011;29078;41.932;25.554;2023-02-15T11:34:37;20.70;;;17.75;;
43487;SDS011;29078;41.932;25.554;2023-02-15T11:37:10;22.75;;;19.35;;
43487;SDS011;29078;41.932;25.554;2023-02-15T11:39:39;22.98;;;18.42;;
43487;SDS011;29078;41.932;25.554;2023-02-15T11:42:06;24.17;;;19.40;;
43487;SDS011;29078;41.932;25.554;2023-02-15T11:45:00;20.63;;;16.42;;
43487;SDS011;29078;41.932;25.554;2023-02-15T11:47:29;20.25;;;17.13;;
43487;SDS011;29078;41.932;25.554;2023-02-15T11:49:54;27.55;;;20.92;;
43487;SDS011;29078;41.932;25.554;2023-02-15T11:52:20;22.77;;;18.25;;
43487;SDS011;29078;41.932;25.554;2023-02-15T11:54:49;22.67;;;18.10;;
43487;SDS011;29078;41.932;25.554;2023-02-15T11:59:45;18.35;;;15.45;;
43487;SDS011;29078;41.932;25.554;2023-02-15T12:02:18;19.73;;;16.17;;
43487;SDS011;29078;41.932;25.554;2023-02-15T12:05:00;21.23;;;16.98;;
43487;SDS011;29078;41.932;25.554;2023-02-15T12:07:34;22.00;;;16.98;;
43487;SDS011;29078;41.932;25.554;2023-02-15T12:10:13;22.20;;;18.60;;
43487;SDS011;29078;41.932;25.554;2023-02-15T12:13:09;24.17;;;18.10;;
43487;SDS011;29078;41.932;25.554;2023-02-15T12:15:44;22.10;;;17.10;;
43487;SDS011;29078;41.932;25.554;2023-02-15T12:18:20;20.40;;;16.70;;
43487;SDS011;29078;41.932;25.554;2023-02-15T12:20:46;20.02;;;16.90;;
43487;SDS011;29078;41.932;25.554;2023-02-15T12:23:14;23.08;;;18.25;;
43487;SDS011;29078;41.932;25.554;2023-02-15T12:25:49;23.60;;;18.70;;
43487;SDS011;29078;41.932;25.554;2023-02-15T12:30:46;20.92;;;16.88;;
43487;SDS011;29078;41.932;25.554;2023-02-15T12:36:03;28.10;;;21.30;;
43487;SDS011;29078;41.932;25.554;2023-02-15T12:38:35;22.08;;;18.52;;
43487;SDS011;29078;41.932;25.554;2023-02-15T12:43:32;22.92;;;19.13;;
43487;SDS011;29078;41.932;25.554;2023-02-15T12:46:25;25.08;;;19.02;;
43487;SDS011;29078;41.932;25.554;2023-02-15T12:51:52;24.73;;;18.95;;
43487;SDS011;29078;41.932;25.554;2023-02-15T12:56:58;24.17;;;19.88;;
43487;SDS011;29078;41.932;25.554;2023-02-15T12:59:24;29.23;;;20.38;;
43487;SDS011;29078;41.932;25.554;2023-02-15T13:01:51;28.40;;;21.40;;
43487;SDS011;29078;41.932;25.554;2023-02-15T13:06:52;27.65;;;21.40;;
43487;SDS011;29078;41.932;25.554;2023-02-15T13:09:53;26.35;;;19.35;;
43487;SDS011;29078;41.932;25.554;2023-02-15T13:12:17;24.50;;;18.30;;
43487;SDS011;29078;41.932;25.554;2023-02-15T13:14:50;25.35;;;20.08;;
43487;SDS011;29078;41.932;25.554;2023-02-15T13:17:17;22.88;;;19.33;;
43487;SDS011;29078;41.932;25.554;2023-02-15T13:19:46;25.63;;;21.38;;
43487;SDS011;29078;41.932;25.554;2023-02-15T13:22:16;25.00;;;20.02;;
43487;SDS011;29078;41.932;25.554;2023-02-15T13:24:59;24.25;;;19.55;;
43487;SDS011;29078;41.932;25.554;2023-02-15T13:27:32;22.40;;;19.13;;
43487;SDS011;29078;41.932;25.554;2023-02-15T13:30:03;22.60;;;18.52;;
43487;SDS011;29078;41.932;25.554;2023-02-15T13:32:48;23.45;;;19.60;;
43487;SDS011;29078;41.932;25.554;2023-02-15T13:35:16;25.05;;;19.90;;
43487;SDS011;29078;41.932;25.554;2023-02-15T13:40:46;25.05;;;20.08;;
43487;SDS011;29078;41.932;25.554;2023-02-15T13:46:29;24.52;;;18.88;;
43487;SDS011;29078;41.932;25.554;2023-02-15T13:49:06;21.95;;;16.65;;
43487;SDS011;29078;41.932;25.554;2023-02-15T13:54:47;21.98;;;17.50;;
43487;SDS011;29078;41.932;25.554;2023-02-15T14:09:05;21.98;;;18.65;;
43487;SDS011;29078;41.932;25.554;2023-02-15T14:11:49;24.33;;;17.83;;
43487;SDS011;29078;41.932;25.554;2023-02-15T14:14:28;21.98;;;17.50;;
43487;SDS011;29078;41.932;25.554;2023-02-15T14:17:04;20.52;;;16.48;;
43487;SDS011;29078;41.932;25.554;2023-02-15T14:19:46;20.23;;;16.48;;
43487;SDS011;29078;41.932;25.554;2023-02-15T14:28:04;22.17;;;17.40;;
43487;SDS011;29078;41.932;25.554;2023-02-15T14:30:37;18.83;;;15.13;;
43487;SDS011;29078;41.932;25.554;2023-02-15T14:35:58;24.25;;;17.38;;
43487;SDS011;29078;41.932;25.554;2023-02-15T14:48:55;20.40;;;15.93;;
43487;SDS011;29078;41.932;25.554;2023-02-15T14:56:41;33.80;;;27.02;;
43487;SDS011;29078;41.932;25.554;2023-02-15T15:01:41;43.90;;;35.10;;
43487;SDS011;29078;41.932;25.554;2023-02-15T15:04:23;30.08;;;24.92;;
43487;SDS011;29078;41.932;25.554;2023-02-15T15:07:03;23.20;;;18.40;;
43487;SDS011;29078;41.932;25.554;2023-02-15T15:09:31;23.45;;;18.15;;
43487;SDS011;29078;41.932;25.554;2023-02-15T15:12:13;22.77;;;17.27;;
43487;SDS011;29078;41.932;25.554;2023-02-15T15:15:00;31.50;;;24.20;;
43487;SDS011;29078;41.932;25.554;2023-02-15T15:20:02;23.83;;;19.58;;
43487;SDS011;29078;41.932;25.554;2023-02-15T15:22:33;20.75;;;17.23;;
43487;SDS011;29078;41.932;25.554;2023-02-15T15:25:07;30.83;;;21.83;;
43487;SDS011;29078;41.932;25.554;2023-02-15T15:49:45;47.53;;;29.33;;
43487;SDS011;29078;41.932;25.554;2023-02-15T15:52:18;50.55;;;29.40;;
43487;SDS011;29078;41.932;25.554;2023-02-15T15:54:46;40.40;;;27.25;;
43487;SDS011;29078;41.932;25.554;2023-02-15T15:57:24;49.83;;;30.00;;
43487;SDS011;29078;41.932;25.554;2023-02-15T15:59:57;45.63;;;30.23;;
43487;SDS011;29078;41.932;25.554;2023-02-15T16:02:26;44.28;;;30.95;;
43487;SDS011;29078;41.932;25.554;2023-02-15T16:04:52;43.85;;;31.05;;
43487;SDS011;29078;41.932;25.554;2023-02-15T16:10:00;44.00;;;30.25;;
43487;SDS011;29078;41.932;25.554;2023-02-15T16:12:29;52.55;;;33.38;;
43487;SDS011;29078;41.932;25.554;2023-02-15T16:14:57;57.05;;;40.53;;
43487;SDS011;29078;41.932;25.554;2023-02-15T16:17:28;60.90;;;41.05;;
43487;SDS011;29078;41.932;25.554;2023-02-15T16:20:06;65.65;;;42.13;;
43487;SDS011;29078;41.932;25.554;2023-02-15T16:22:39;70.85;;;44.70;;
43487;SDS011;29078;41.932;25.554;2023-02-15T16:27:51;72.90;;;53.13;;
43487;SDS011;29078;41.932;25.554;2023-02-15T16:32:46;83.40;;;54.58;;
43487;SDS011;29078;41.932;25.554;2023-02-15T16:35:15;82.75;;;57.08;;
43487;SDS011;29078;41.932;25.554;2023-02-15T16:37:42;91.82;;;59.95;;
43487;SDS011;29078;41.932;25.554;2023-02-15T16:42:53;106.55;;;76.13;;
43487;SDS011;29078;41.932;25.554;2023-02-15T16:45:22;101.10;;;72.93;;
43487;SDS011;29078;41.932;25.554;2023-02-15T16:47:52;100.68;;;68.32;;
43487;SDS011;29078;41.932;25.554;2023-02-15T16:50:22;104.55;;;67.70;;
43487;SDS011;29078;41.932;25.554;2023-02-15T16:52:49;93.80;;;66.40;;
43487;SDS011;29078;41.932;25.554;2023-02-15T16:55:19;95.97;;;70.13;;
43487;SDS011;29078;41.932;25.554;2023-02-15T16:57:47;97.30;;;68.28;;
43487;SDS011;29078;41.932;25.554;2023-02-15T17:00:18;97.10;;;67.28;;
43487;SDS011;29078;41.932;25.554;2023-02-15T17:03:01;94.97;;;65.60;;
43487;SDS011;29078;41.932;25.554;2023-02-15T17:05:33;83.30;;;57.45;;
43487;SDS011;29078;41.932;25.554;2023-02-15T17:11:17;77.63;;;52.67;;
43487;SDS011;29078;41.932;25.554;2023-02-15T17:16:32;86.15;;;60.13;;
43487;SDS011;29078;41.932;25.554;2023-02-15T17:19:14;80.00;;;54.40;;
43487;SDS011;29078;41.932;25.554;2023-02-15T17:21:41;75.75;;;51.08;;
43487;SDS011;29078;41.932;25.554;2023-02-15T17:24:17;71.55;;;47.85;;
43487;SDS011;29078;41.932;25.554;2023-02-15T17:26:54;82.03;;;53.67;;
43487;SDS011;29078;41.932;25.554;2023-02-15T17:29:36;94.10;;;61.30;;
43487;SDS011;29078;41.932;25.554;2023-02-15T17:32:05;93.32;;;60.70;;
43487;SDS011;29078;41.932;25.554;2023-02-15T17:37:13;121.50;;;72.90;;
43487;SDS011;29078;41.932;25.554;2023-02-15T17:39:51;121.65;;;77.00;;
43487;SDS011;29078;41.932;25.554;2023-02-15T17:42:16;146.50;;;89.88;;
43487;SDS011;29078;41.932;25.554;2023-02-15T17:44:42;155.40;;;92.13;;
43487;SDS011;29078;41.932;25.554;2023-02-15T17:47:09;195.95;;;109.38;;